Alts de Monte Brisas, Puerto Rico
Current Conditions -  °F | °C
As of 9:53 AM on Sunday 23 Nov 2014 (Local Time) from TJNR Reporting Station
Broken Clouds Broken Clouds  
Wind Chill: 84°   Ceiling: 6500
Heat Index: 90°   Visibility: 10mi
Dew Point: 73°   Wind: 13mph
Humidity: 69%   Direction: 90°E
Pressure: 30.09"   Gusts: 21mph
Location:  18.3304°N, 65.6573°W
Report Text: TJNR 231353Z AUTO 09011G18KT 10SM FEW026 SCT050 BKN065 29/23 A3009 RMK AO2 SLP188 T02890228 $
Loading
Personal Weather Stations






























Interactive Weather Map New forecast layout! Learn more

10-Day Weather Forecast

Advertisements
Track Severe Weather on mobile